sensor_id;sensor_type;location;lat;lon;timestamp;temperature;humidity
27801;DHT22;15181;49.112;11.930;2022-08-19T00:01:22;20.30;99.90
27801;DHT22;15181;49.112;11.930;2022-08-19T00:03:49;20.20;99.90
27801;DHT22;15181;49.112;11.930;2022-08-19T00:06:17;20.20;99.90
27801;DHT22;15181;49.112;11.930;2022-08-19T00:08:44;20.30;99.90
27801;DHT22;15181;49.112;11.930;2022-08-19T00:11:11;20.40;99.90
27801;DHT22;15181;49.112;11.930;2022-08-19T00:13:39;20.50;99.90
27801;DHT22;15181;49.112;11.930;2022-08-19T00:16:08;20.60;99.90
27801;DHT22;15181;49.112;11.930;2022-08-19T00:18:35;20.60;99.90
27801;DHT22;15181;49.112;11.930;2022-08-19T00:21:02;20.50;99.90
27801;DHT22;15181;49.112;11.930;2022-08-19T00:23:35;20.30;99.90
27801;DHT22;15181;49.112;11.930;2022-08-19T00:26:03;20.30;99.90
27801;DHT22;15181;49.112;11.930;2022-08-19T00:28:30;20.40;99.90
27801;DHT22;15181;49.112;11.930;2022-08-19T00:30:58;20.50;99.90
27801;DHT22;15181;49.112;11.930;2022-08-19T00:33:30;20.60;99.90
27801;DHT22;15181;49.112;11.930;2022-08-19T00:35:58;20.70;99.90
27801;DHT22;15181;49.112;11.930;2022-08-19T00:38:25;20.80;99.90
27801;DHT22;15181;49.112;11.930;2022-08-19T00:40:52;20.90;99.90
27801;DHT22;15181;49.112;11.930;2022-08-19T00:43:21;20.90;99.90
27801;DHT22;15181;49.112;11.930;2022-08-19T00:45:49;20.90;99.90
27801;DHT22;15181;49.112;11.930;2022-08-19T00:48:19;20.80;99.90
27801;DHT22;15181;49.112;11.930;2022-08-19T00:50:50;20.80;99.90
27801;DHT22;15181;49.112;11.930;2022-08-19T00:53:21;20.80;99.90
27801;DHT22;15181;49.112;11.930;2022-08-19T00:55:51;20.80;99.90
27801;DHT22;15181;49.112;11.930;2022-08-19T00:58:21;20.90;99.90
27801;DHT22;15181;49.112;11.930;2022-08-19T01:00:49;20.70;99.90
27801;DHT22;15181;49.112;11.930;2022-08-19T01:03:19;20.60;99.90
27801;DHT22;15181;49.112;11.930;2022-08-19T01:05:50;20.60;99.90
27801;DHT22;15181;49.112;11.930;2022-08-19T01:08:19;20.50;99.90
27801;DHT22;15181;49.112;11.930;2022-08-19T01:10:54;20.50;99.90
27801;DHT22;15181;49.112;11.930;2022-08-19T01:13:24;20.50;99.90
27801;DHT22;15181;49.112;11.930;2022-08-19T01:15:55;20.40;99.90
27801;DHT22;15181;49.112;11.930;2022-08-19T01:18:23;20.40;99.90
27801;DHT22;15181;49.112;11.930;2022-08-19T01:20:56;20.40;99.90
27801;DHT22;15181;49.112;11.930;2022-08-19T01:23:27;20.40;99.90
27801;DHT22;15181;49.112;11.930;2022-08-19T01:26:10;20.50;99.90
27801;DHT22;15181;49.112;11.930;2022-08-19T01:28:38;20.60;99.90
27801;DHT22;15181;49.112;11.930;2022-08-19T01:31:14;20.60;99.90
27801;DHT22;15181;49.112;11.930;2022-08-19T01:33:41;20.50;99.90
27801;DHT22;15181;49.112;11.930;2022-08-19T01:36:12;20.30;99.90
27801;DHT22;15181;49.112;11.930;2022-08-19T01:38:42;20.30;99.90
27801;DHT22;15181;49.112;11.930;2022-08-19T01:41:11;20.40;99.90
27801;DHT22;15181;49.112;11.930;2022-08-19T01:43:38;20.40;99.90
27801;DHT22;15181;49.112;11.930;2022-08-19T01:46:05;20.40;99.90
27801;DHT22;15181;49.112;11.930;2022-08-19T01:48:34;20.40;99.90
27801;DHT22;15181;49.112;11.930;2022-08-19T01:51:01;20.50;99.90
27801;DHT22;15181;49.112;11.930;2022-08-19T01:53:29;20.60;99.90
27801;DHT22;15181;49.112;11.930;2022-08-19T01:55:58;20.70;99.90
27801;DHT22;15181;49.112;11.930;2022-08-19T01:58:29;20.60;99.90
27801;DHT22;15181;49.112;11.930;2022-08-19T02:00:57;20.60;99.90
27801;DHT22;15181;49.112;11.930;2022-08-19T02:03:24;20.50;99.90
27801;DHT22;15181;49.112;11.930;2022-08-19T02:05:55;20.40;99.90
27801;DHT22;15181;49.112;11.930;2022-08-19T02:08:24;20.30;99.90
27801;DHT22;15181;49.112;11.930;2022-08-19T02:10:51;20.20;99.90
27801;DHT22;15181;49.112;11.930;2022-08-19T02:13:20;20.20;99.90
27801;DHT22;15181;49.112;11.930;2022-08-19T02:15:47;20.10;99.90
27801;DHT22;15181;49.112;11.930;2022-08-19T02:18:14;20.10;99.90
27801;DHT22;15181;49.112;11.930;2022-08-19T02:20:42;20.00;99.90
27801;DHT22;15181;49.112;11.930;2022-08-19T02:23:11;20.00;99.90
27801;DHT22;15181;49.112;11.930;2022-08-19T02:25:39;20.10;99.90
27801;DHT22;15181;49.112;11.930;2022-08-19T02:28:06;20.20;99.90
27801;DHT22;15181;49.112;11.930;2022-08-19T02:30:34;20.30;99.90
27801;DHT22;15181;49.112;11.930;2022-08-19T02:33:02;20.30;99.90
27801;DHT22;15181;49.112;11.930;2022-08-19T02:35:28;20.30;99.90
27801;DHT22;15181;49.112;11.930;2022-08-19T02:37:55;20.30;99.90
27801;DHT22;15181;49.112;11.930;2022-08-19T02:40:40;20.20;99.90
27801;DHT22;15181;49.112;11.930;2022-08-19T02:43:08;20.20;99.90
27801;DHT22;15181;49.112;11.930;2022-08-19T02:45:38;20.10;99.90
27801;DHT22;15181;49.112;11.930;2022-08-19T02:48:05;20.10;99.90
27801;DHT22;15181;49.112;11.930;2022-08-19T02:50:33;20.20;99.90
27801;DHT22;15181;49.112;11.930;2022-08-19T02:53:00;20.30;99.90
27801;DHT22;15181;49.112;11.930;2022-08-19T02:55:27;20.40;99.90
27801;DHT22;15181;49.112;11.930;2022-08-19T02:57:54;20.40;99.90
27801;DHT22;15181;49.112;11.930;2022-08-19T03:00:22;20.30;99.90
27801;DHT22;15181;49.112;11.930;2022-08-19T03:02:51;20.10;99.90
27801;DHT22;15181;49.112;11.930;2022-08-19T03:05:18;20.10;99.90
27801;DHT22;15181;49.112;11.930;2022-08-19T03:07:45;20.00;99.90
27801;DHT22;15181;49.112;11.930;2022-08-19T03:10:13;19.90;99.90
27801;DHT22;15181;49.112;11.930;2022-08-19T03:12:40;19.90;99.90
27801;DHT22;15181;49.112;11.930;2022-08-19T03:15:08;19.90;99.90
27801;DHT22;15181;49.112;11.930;2022-08-19T03:17:35;19.90;99.90
27801;DHT22;15181;49.112;11.930;2022-08-19T03:20:05;19.80;99.90
27801;DHT22;15181;49.112;11.930;2022-08-19T03:22:32;19.80;99.90
27801;DHT22;15181;49.112;11.930;2022-08-19T03:24:59;19.90;99.90
27801;DHT22;15181;49.112;11.930;2022-08-19T03:27:26;19.90;99.90
27801;DHT22;15181;49.112;11.930;2022-08-19T03:29:55;20.10;99.90
27801;DHT22;15181;49.112;11.930;2022-08-19T03:32:22;20.10;99.90
27801;DHT22;15181;49.112;11.930;2022-08-19T03:34:49;20.20;99.90
27801;DHT22;15181;49.112;11.930;2022-08-19T03:37:19;20.00;99.90
27801;DHT22;15181;49.112;11.930;2022-08-19T03:39:47;19.90;99.90
27801;DHT22;15181;49.112;11.930;2022-08-19T03:42:14;19.90;99.90
27801;DHT22;15181;49.112;11.930;2022-08-19T03:44:42;20.00;99.90
27801;DHT22;15181;49.112;11.930;2022-08-19T03:47:10;20.00;99.90
27801;DHT22;15181;49.112;11.930;2022-08-19T03:49:41;20.10;99.90
27801;DHT22;15181;49.112;11.930;2022-08-19T03:52:08;20.20;99.90
27801;DHT22;15181;49.112;11.930;2022-08-19T03:54:37;20.20;99.90
27801;DHT22;15181;49.112;11.930;2022-08-19T03:57:05;20.30;99.90
27801;DHT22;15181;49.112;11.930;2022-08-19T03:59:35;20.30;99.90
27801;DHT22;15181;49.112;11.930;2022-08-19T04:02:11;20.30;99.90
27801;DHT22;15181;49.112;11.930;2022-08-19T04:04:41;20.40;99.90
27801;DHT22;15181;49.112;11.930;2022-08-19T04:07:09;20.40;99.90
27801;DHT22;15181;49.112;11.930;2022-08-19T04:09:39;20.40;99.90
27801;DHT22;15181;49.112;11.930;2022-08-19T04:12:08;20.30;99.90
27801;DHT22;15181;49.112;11.930;2022-08-19T04:14:35;20.20;99.90
27801;DHT22;15181;49.112;11.930;2022-08-19T04:17:03;20.20;99.90
27801;DHT22;15181;49.112;11.930;2022-08-19T04:19:32;20.30;99.90
27801;DHT22;15181;49.112;11.930;2022-08-19T04:21:59;20.30;99.90
27801;DHT22;15181;49.112;11.930;2022-08-19T04:24:27;20.40;99.90
27801;DHT22;15181;49.112;11.930;2022-08-19T04:26:56;20.40;99.90
27801;DHT22;15181;49.112;11.930;2022-08-19T04:29:24;20.40;99.90
27801;DHT22;15181;49.112;11.930;2022-08-19T04:31:53;20.40;99.90
27801;DHT22;15181;49.112;11.930;2022-08-19T04:34:22;20.20;99.90
27801;DHT22;15181;49.112;11.930;2022-08-19T04:36:51;20.20;99.90
27801;DHT22;15181;49.112;11.930;2022-08-19T04:39:20;20.10;99.90
27801;DHT22;15181;49.112;11.930;2022-08-19T04:41:48;20.10;99.90
27801;DHT22;15181;49.112;11.930;2022-08-19T04:44:35;20.20;99.90
27801;DHT22;15181;49.112;11.930;2022-08-19T04:47:03;20.20;99.90
27801;DHT22;15181;49.112;11.930;2022-08-19T04:49:31;20.30;99.90
27801;DHT22;15181;49.112;11.930;2022-08-19T04:51:58;20.30;99.90
27801;DHT22;15181;49.112;11.930;2022-08-19T04:54:25;20.20;99.90
27801;DHT22;15181;49.112;11.930;2022-08-19T04:56:53;20.00;99.90
27801;DHT22;15181;49.112;11.930;2022-08-19T04:59:21;19.90;99.90
27801;DHT22;15181;49.112;11.930;2022-08-19T05:01:49;20.00;99.90
27801;DHT22;15181;49.112;11.930;2022-08-19T05:04:18;20.00;99.90
27801;DHT22;15181;49.112;11.930;2022-08-19T05:06:46;20.10;99.90
27801;DHT22;15181;49.112;11.930;2022-08-19T05:09:14;20.20;99.90
27801;DHT22;15181;49.112;11.930;2022-08-19T05:11:42;20.30;99.90
27801;DHT22;15181;49.112;11.930;2022-08-19T05:14:11;20.20;99.90
27801;DHT22;15181;49.112;11.930;2022-08-19T05:16:39;20.20;99.90
27801;DHT22;15181;49.112;11.930;2022-08-19T05:19:08;20.20;99.90
27801;DHT22;15181;49.112;11.930;2022-08-19T05:21:53;20.20;99.90
27801;DHT22;15181;49.112;11.930;2022-08-19T05:24:37;20.30;99.90
27801;DHT22;15181;49.112;11.930;2022-08-19T05:27:04;20.30;99.90
27801;DHT22;15181;49.112;11.930;2022-08-19T05:29:32;20.30;99.90
27801;DHT22;15181;49.112;11.930;2022-08-19T05:32:01;20.40;99.90
27801;DHT22;15181;49.112;11.930;2022-08-19T05:34:31;20.50;99.90
27801;DHT22;15181;49.112;11.930;2022-08-19T05:37:00;20.50;99.90
27801;DHT22;15181;49.112;11.930;2022-08-19T05:39:30;20.50;99.90
27801;DHT22;15181;49.112;11.930;2022-08-19T05:41:59;20.60;99.90
27801;DHT22;15181;49.112;11.930;2022-08-19T05:44:29;20.50;99.90
27801;DHT22;15181;49.112;11.930;2022-08-19T05:46:58;20.40;99.90
27801;DHT22;15181;49.112;11.930;2022-08-19T05:49:25;20.30;99.90
27801;DHT22;15181;49.112;11.930;2022-08-19T05:51:54;20.30;99.90
27801;DHT22;15181;49.112;11.930;2022-08-19T05:54:23;20.20;99.90
27801;DHT22;15181;49.112;11.930;2022-08-19T05:56:51;20.20;99.90
27801;DHT22;15181;49.112;11.930;2022-08-19T05:59:22;20.30;99.90
27801;DHT22;15181;49.112;11.930;2022-08-19T06:01:51;20.40;99.90
27801;DHT22;15181;49.112;11.930;2022-08-19T06:04:20;20.50;99.90
27801;DHT22;15181;49.112;11.930;2022-08-19T06:06:49;20.60;99.90
27801;DHT22;15181;49.112;11.930;2022-08-19T06:09:20;20.60;99.90
27801;DHT22;15181;49.112;11.930;2022-08-19T06:11:49;20.70;99.90
27801;DHT22;15181;49.112;11.930;2022-08-19T06:14:21;20.70;99.90
27801;DHT22;15181;49.112;11.930;2022-08-19T06:16:49;20.80;99.90
27801;DHT22;15181;49.112;11.930;2022-08-19T06:19:20;20.80;99.90
27801;DHT22;15181;49.112;11.930;2022-08-19T06:21:48;20.90;99.90
27801;DHT22;15181;49.112;11.930;2022-08-19T06:24:19;20.90;99.90
27801;DHT22;15181;49.112;11.930;2022-08-19T06:26:50;20.90;99.90
27801;DHT22;15181;49.112;11.930;2022-08-19T06:29:19;20.90;99.90
27801;DHT22;15181;49.112;11.930;2022-08-19T06:31:49;20.70;99.90
27801;DHT22;15181;49.112;11.930;2022-08-19T06:34:17;20.70;99.90
27801;DHT22;15181;49.112;11.930;2022-08-19T06:36:47;20.70;99.90
27801;DHT22;15181;49.112;11.930;2022-08-19T06:39:17;20.60;99.90
27801;DHT22;15181;49.112;11.930;2022-08-19T06:41:47;20.70;99.90
27801;DHT22;15181;49.112;11.930;2022-08-19T06:44:15;20.70;99.90
27801;DHT22;15181;49.112;11.930;2022-08-19T06:46:42;20.80;99.90
27801;DHT22;15181;49.112;11.930;2022-08-19T06:49:10;20.90;99.90
27801;DHT22;15181;49.112;11.930;2022-08-19T06:51:40;21.00;99.90
27801;DHT22;15181;49.112;11.930;2022-08-19T06:54:09;21.00;99.90
27801;DHT22;15181;49.112;11.930;2022-08-19T06:56:37;21.00;99.90
27801;DHT22;15181;49.112;11.930;2022-08-19T06:59:07;21.10;99.90
27801;DHT22;15181;49.112;11.930;2022-08-19T07:01:37;21.10;99.90
27801;DHT22;15181;49.112;11.930;2022-08-19T07:04:06;21.10;99.90
27801;DHT22;15181;49.112;11.930;2022-08-19T07:06:34;21.20;99.90
27801;DHT22;15181;49.112;11.930;2022-08-19T07:09:03;21.20;99.90
27801;DHT22;15181;49.112;11.930;2022-08-19T07:11:33;21.30;99.90
27801;DHT22;15181;49.112;11.930;2022-08-19T07:14:00;21.30;99.90
27801;DHT22;15181;49.112;11.930;2022-08-19T07:16:29;21.20;99.90
27801;DHT22;15181;49.112;11.930;2022-08-19T07:18:56;21.20;99.90
27801;DHT22;15181;49.112;11.930;2022-08-19T07:21:26;21.30;99.90
27801;DHT22;15181;49.112;11.930;2022-08-19T07:23:54;21.30;99.90
27801;DHT22;15181;49.112;11.930;2022-08-19T07:26:24;21.30;99.90
27801;DHT22;15181;49.112;11.930;2022-08-19T07:28:52;21.20;99.90
27801;DHT22;15181;49.112;11.930;2022-08-19T07:31:22;21.20;99.90
27801;DHT22;15181;49.112;11.930;2022-08-19T07:33:53;21.20;99.90
27801;DHT22;15181;49.112;11.930;2022-08-19T07:36:24;21.20;99.90
27801;DHT22;15181;49.112;11.930;2022-08-19T07:38:59;21.20;99.90
27801;DHT22;15181;49.112;11.930;2022-08-19T07:41:28;21.30;99.90
27801;DHT22;15181;49.112;11.930;2022-08-19T07:43:58;21.50;99.90
27801;DHT22;15181;49.112;11.930;2022-08-19T07:46:30;21.60;99.90
27801;DHT22;15181;49.112;11.930;2022-08-19T07:49:00;21.80;99.90
27801;DHT22;15181;49.112;11.930;2022-08-19T07:51:28;21.70;99.90
27801;DHT22;15181;49.112;11.930;2022-08-19T07:53:55;21.70;99.90
27801;DHT22;15181;49.112;11.930;2022-08-19T07:56:23;21.80;99.90
27801;DHT22;15181;49.112;11.930;2022-08-19T07:58:51;21.80;99.90
27801;DHT22;15181;49.112;11.930;2022-08-19T08:01:21;21.80;99.90
27801;DHT22;15181;49.112;11.930;2022-08-19T08:03:50;21.90;99.90
27801;DHT22;15181;49.112;11.930;2022-08-19T08:06:37;21.90;99.90
27801;DHT22;15181;49.112;11.930;2022-08-19T08:09:25;21.90;99.90
27801;DHT22;15181;49.112;11.930;2022-08-19T08:11:55;22.00;99.90
27801;DHT22;15181;49.112;11.930;2022-08-19T08:14:25;21.90;99.90
27801;DHT22;15181;49.112;11.930;2022-08-19T08:16:52;21.90;99.90
27801;DHT22;15181;49.112;11.930;2022-08-19T08:19:21;21.70;99.90
27801;DHT22;15181;49.112;11.930;2022-08-19T08:21:51;21.50;99.90
27801;DHT22;15181;49.112;11.930;2022-08-19T08:24:18;21.40;99.90
27801;DHT22;15181;49.112;11.930;2022-08-19T08:26:46;21.30;99.90
27801;DHT22;15181;49.112;11.930;2022-08-19T08:29:14;21.20;99.90
27801;DHT22;15181;49.112;11.930;2022-08-19T08:31:43;21.10;99.90
27801;DHT22;15181;49.112;11.930;2022-08-19T08:34:11;21.10;99.90
27801;DHT22;15181;49.112;11.930;2022-08-19T08:36:40;21.10;99.90
27801;DHT22;15181;49.112;11.930;2022-08-19T08:39:11;21.20;99.90
27801;DHT22;15181;49.112;11.930;2022-08-19T08:41:44;21.30;99.90
27801;DHT22;15181;49.112;11.930;2022-08-19T08:44:16;21.20;99.90
27801;DHT22;15181;49.112;11.930;2022-08-19T08:46:47;21.30;99.90
27801;DHT22;15181;49.112;11.930;2022-08-19T08:49:24;21.30;99.90
27801;DHT22;15181;49.112;11.930;2022-08-19T08:51:58;21.50;99.90
27801;DHT22;15181;49.112;11.930;2022-08-19T08:54:32;21.60;99.90
27801;DHT22;15181;49.112;11.930;2022-08-19T08:57:00;21.60;99.90
27801;DHT22;15181;49.112;11.930;2022-08-19T08:59:30;21.80;99.90
27801;DHT22;15181;49.112;11.930;2022-08-19T09:01:59;21.70;99.90
27801;DHT22;15181;49.112;11.930;2022-08-19T09:04:26;21.70;99.90
27801;DHT22;15181;49.112;11.930;2022-08-19T09:07:09;21.80;99.90
27801;DHT22;15181;49.112;11.930;2022-08-19T09:09:44;21.90;99.90
27801;DHT22;15181;49.112;11.930;2022-08-19T09:12:18;22.00;99.90
27801;DHT22;15181;49.112;11.930;2022-08-19T09:14:52;22.00;99.90
27801;DHT22;15181;49.112;11.930;2022-08-19T09:17:23;22.20;99.90
27801;DHT22;15181;49.112;11.930;2022-08-19T09:19:56;22.30;99.90
27801;DHT22;15181;49.112;11.930;2022-08-19T09:22:24;22.50;99.90
27801;DHT22;15181;49.112;11.930;2022-08-19T09:24:54;22.80;99.90
27801;DHT22;15181;49.112;11.930;2022-08-19T09:27:24;22.70;99.90
27801;DHT22;15181;49.112;11.930;2022-08-19T09:29:52;22.40;99.90
27801;DHT22;15181;49.112;11.930;2022-08-19T09:32:19;22.40;99.90
27801;DHT22;15181;49.112;11.930;2022-08-19T09:34:47;22.40;99.90
27801;DHT22;15181;49.112;11.930;2022-08-19T09:37:14;22.40;99.90
27801;DHT22;15181;49.112;11.930;2022-08-19T09:39:41;22.20;99.90
27801;DHT22;15181;49.112;11.930;2022-08-19T09:42:10;22.20;99.90
27801;DHT22;15181;49.112;11.930;2022-08-19T09:44:39;22.20;99.90
27801;DHT22;15181;49.112;11.930;2022-08-19T09:47:08;22.30;99.90
27801;DHT22;15181;49.112;11.930;2022-08-19T09:49:36;22.30;99.90
27801;DHT22;15181;49.112;11.930;2022-08-19T09:52:05;22.30;99.90
27801;DHT22;15181;49.112;11.930;2022-08-19T09:54:33;22.40;99.90
27801;DHT22;15181;49.112;11.930;2022-08-19T09:57:00;22.30;99.90
27801;DHT22;15181;49.112;11.930;2022-08-19T09:59:29;22.20;99.90
27801;DHT22;15181;49.112;11.930;2022-08-19T10:01:56;22.20;99.90
27801;DHT22;15181;49.112;11.930;2022-08-19T10:04:23;22.30;99.90
27801;DHT22;15181;49.112;11.930;2022-08-19T10:07:11;22.30;99.90
27801;DHT22;15181;49.112;11.930;2022-08-19T10:09:38;22.20;99.90
27801;DHT22;15181;49.112;11.930;2022-08-19T10:12:07;22.10;99.90
27801;DHT22;15181;49.112;11.930;2022-08-19T10:14:36;22.00;99.90
27801;DHT22;15181;49.112;11.930;2022-08-19T10:17:04;22.00;99.90
27801;DHT22;15181;49.112;11.930;2022-08-19T10:19:32;22.10;99.90
27801;DHT22;15181;49.112;11.930;2022-08-19T10:22:03;22.20;99.90
27801;DHT22;15181;49.112;11.930;2022-08-19T10:24:31;22.30;99.90
27801;DHT22;15181;49.112;11.930;2022-08-19T10:26:59;22.30;99.90
27801;DHT22;15181;49.112;11.930;2022-08-19T10:29:29;22.40;99.90
27801;DHT22;15181;49.112;11.930;2022-08-19T10:32:01;22.30;99.90
27801;DHT22;15181;49.112;11.930;2022-08-19T10:34:29;22.30;99.90
27801;DHT22;15181;49.112;11.930;2022-08-19T10:36:57;22.30;99.90
27801;DHT22;15181;49.112;11.930;2022-08-19T10:39:27;22.40;99.90
27801;DHT22;15181;49.112;11.930;2022-08-19T10:41:55;22.50;99.90
27801;DHT22;15181;49.112;11.930;2022-08-19T10:44:23;22.50;99.90
27801;DHT22;15181;49.112;11.930;2022-08-19T10:46:50;22.40;99.90
27801;DHT22;15181;49.112;11.930;2022-08-19T10:49:19;22.30;99.90
27801;DHT22;15181;49.112;11.930;2022-08-19T10:51:47;22.30;99.90
27801;DHT22;15181;49.112;11.930;2022-08-19T10:54:32;22.50;99.90
27801;DHT22;15181;49.112;11.930;2022-08-19T10:57:13;22.70;99.90
27801;DHT22;15181;49.112;11.930;2022-08-19T10:59:43;22.60;99.90
27801;DHT22;15181;49.112;11.930;2022-08-19T11:02:11;22.60;99.90
27801;DHT22;15181;49.112;11.930;2022-08-19T11:04:41;22.60;99.90
27801;DHT22;15181;49.112;11.930;2022-08-19T11:07:11;22.70;99.90
27801;DHT22;15181;49.112;11.930;2022-08-19T11:09:48;22.70;99.90
27801;DHT22;15181;49.112;11.930;2022-08-19T11:12:18;22.50;99.90
27801;DHT22;15181;49.112;11.930;2022-08-19T11:14:45;22.40;99.90
27801;DHT22;15181;49.112;11.930;2022-08-19T11:17:15;22.30;99.90
27801;DHT22;15181;49.112;11.930;2022-08-19T11:19:47;22.40;99.90
27801;DHT22;15181;49.112;11.930;2022-08-19T11:22:15;22.60;99.90
27801;DHT22;15181;49.112;11.930;2022-08-19T11:24:43;22.70;99.90
27801;DHT22;15181;49.112;11.930;2022-08-19T11:27:12;22.70;99.90
27801;DHT22;15181;49.112;11.930;2022-08-19T11:29:40;22.80;99.90
27801;DHT22;15181;49.112;11.930;2022-08-19T11:32:10;22.80;99.90
27801;DHT22;15181;49.112;11.930;2022-08-19T11:34:38;22.70;99.90
27801;DHT22;15181;49.112;11.930;2022-08-19T11:37:08;22.70;99.90
27801;DHT22;15181;49.112;11.930;2022-08-19T11:39:36;22.70;99.90
27801;DHT22;15181;49.112;11.930;2022-08-19T11:42:04;22.70;99.90
27801;DHT22;15181;49.112;11.930;2022-08-19T11:44:53;22.70;99.90
27801;DHT22;15181;49.112;11.930;2022-08-19T11:47:23;22.70;99.90
27801;DHT22;15181;49.112;11.930;2022-08-19T11:49:50;22.70;99.90
27801;DHT22;15181;49.112;11.930;2022-08-19T11:52:20;22.70;99.90
27801;DHT22;15181;49.112;11.930;2022-08-19T11:54:47;22.60;99.90
27801;DHT22;15181;49.112;11.930;2022-08-19T11:57:15;22.70;99.90
27801;DHT22;15181;49.112;11.930;2022-08-19T11:59:42;22.60;99.90
27801;DHT22;15181;49.112;11.930;2022-08-19T12:02:14;22.70;99.90
27801;DHT22;15181;49.112;11.930;2022-08-19T12:04:41;22.70;99.90
27801;DHT22;15181;49.112;11.930;2022-08-19T12:07:08;22.80;99.90
27801;DHT22;15181;49.112;11.930;2022-08-19T12:09:37;22.80;99.90
27801;DHT22;15181;49.112;11.930;2022-08-19T12:12:05;22.70;99.90
27801;DHT22;15181;49.112;11.930;2022-08-19T12:14:32;22.60;99.90
27801;DHT22;15181;49.112;11.930;2022-08-19T12:16:59;22.70;99.90
27801;DHT22;15181;49.112;11.930;2022-08-19T12:19:27;22.60;99.90
27801;DHT22;15181;49.112;11.930;2022-08-19T12:21:58;22.40;99.90
27801;DHT22;15181;49.112;11.930;2022-08-19T12:24:27;22.30;99.90
27801;DHT22;15181;49.112;11.930;2022-08-19T12:26:59;22.40;99.90
27801;DHT22;15181;49.112;11.930;2022-08-19T12:29:27;22.50;99.90
27801;DHT22;15181;49.112;11.930;2022-08-19T12:31:55;22.40;99.90
27801;DHT22;15181;49.112;11.930;2022-08-19T12:34:28;22.40;99.90
27801;DHT22;15181;49.112;11.930;2022-08-19T12:36:57;22.40;99.90
27801;DHT22;15181;49.112;11.930;2022-08-19T12:39:24;22.40;99.90
27801;DHT22;15181;49.112;11.930;2022-08-19T12:41:52;22.50;99.90
27801;DHT22;15181;49.112;11.930;2022-08-19T12:44:22;22.60;99.90
27801;DHT22;15181;49.112;11.930;2022-08-19T12:46:49;22.70;99.90
27801;DHT22;15181;49.112;11.930;2022-08-19T12:49:16;22.80;99.90
27801;DHT22;15181;49.112;11.930;2022-08-19T12:51:45;22.90;99.90
27801;DHT22;15181;49.112;11.930;2022-08-19T12:54:12;22.90;99.90
27801;DHT22;15181;49.112;11.930;2022-08-19T12:56:40;22.90;99.90
27801;DHT22;15181;49.112;11.930;2022-08-19T12:59:08;22.90;99.90
27801;DHT22;15181;49.112;11.930;2022-08-19T13:01:38;23.10;99.90
27801;DHT22;15181;49.112;11.930;2022-08-19T13:04:06;23.20;99.90
27801;DHT22;15181;49.112;11.930;2022-08-19T13:06:37;23.10;99.90
27801;DHT22;15181;49.112;11.930;2022-08-19T13:09:05;23.10;99.90
27801;DHT22;15181;49.112;11.930;2022-08-19T13:11:32;23.10;99.90
27801;DHT22;15181;49.112;11.930;2022-08-19T13:14:01;23.10;99.90
27801;DHT22;15181;49.112;11.930;2022-08-19T13:16:29;23.10;99.90
27801;DHT22;15181;49.112;11.930;2022-08-19T13:18:58;22.90;99.90
27801;DHT22;15181;49.112;11.930;2022-08-19T13:21:28;22.90;99.90
27801;DHT22;15181;49.112;11.930;2022-08-19T13:23:56;22.90;99.90
27801;DHT22;15181;49.112;11.930;2022-08-19T13:26:23;23.10;99.90
27801;DHT22;15181;49.112;11.930;2022-08-19T13:28:51;23.10;99.90
27801;DHT22;15181;49.112;11.930;2022-08-19T13:31:38;23.10;99.90
27801;DHT22;15181;49.112;11.930;2022-08-19T13:34:29;23.00;99.90
27801;DHT22;15181;49.112;11.930;2022-08-19T13:36:58;22.80;99.90
27801;DHT22;15181;49.112;11.930;2022-08-19T13:39:29;22.80;99.90
27801;DHT22;15181;49.112;11.930;2022-08-19T13:41:56;22.70;99.90
27801;DHT22;15181;49.112;11.930;2022-08-19T13:44:24;22.80;99.90
27801;DHT22;15181;49.112;11.930;2022-08-19T13:46:52;22.90;99.90
27801;DHT22;15181;49.112;11.930;2022-08-19T13:49:19;22.90;99.90
27801;DHT22;15181;49.112;11.930;2022-08-19T13:51:50;23.00;99.90
27801;DHT22;15181;49.112;11.930;2022-08-19T13:54:18;23.10;99.90
27801;DHT22;15181;49.112;11.930;2022-08-19T13:56:45;23.10;99.90
27801;DHT22;15181;49.112;11.930;2022-08-19T13:59:13;23.10;99.90
27801;DHT22;15181;49.112;11.930;2022-08-19T14:01:41;23.00;99.90
27801;DHT22;15181;49.112;11.930;2022-08-19T14:04:09;23.00;99.90
27801;DHT22;15181;49.112;11.930;2022-08-19T14:06:37;22.90;99.90
27801;DHT22;15181;49.112;11.930;2022-08-19T14:09:07;22.90;99.90
27801;DHT22;15181;49.112;11.930;2022-08-19T14:11:34;22.90;99.90
27801;DHT22;15181;49.112;11.930;2022-08-19T14:14:01;22.90;99.90
27801;DHT22;15181;49.112;11.930;2022-08-19T14:16:28;22.80;99.90
27801;DHT22;15181;49.112;11.930;2022-08-19T14:18:56;22.70;99.90
27801;DHT22;15181;49.112;11.930;2022-08-19T14:21:24;22.60;99.90
27801;DHT22;15181;49.112;11.930;2022-08-19T14:23:52;22.50;99.90
27801;DHT22;15181;49.112;11.930;2022-08-19T14:26:22;22.60;99.90
27801;DHT22;15181;49.112;11.930;2022-08-19T14:28:49;22.70;99.90
27801;DHT22;15181;49.112;11.930;2022-08-19T14:31:18;22.50;99.90
27801;DHT22;15181;49.112;11.930;2022-08-19T14:33:50;22.30;99.90
27801;DHT22;15181;49.112;11.930;2022-08-19T14:36:18;22.40;99.90
27801;DHT22;15181;49.112;11.930;2022-08-19T14:38:46;22.40;99.90
27801;DHT22;15181;49.112;11.930;2022-08-19T14:41:15;22.30;99.90
27801;DHT22;15181;49.112;11.930;2022-08-19T14:43:45;22.30;99.90
27801;DHT22;15181;49.112;11.930;2022-08-19T14:46:13;22.30;99.90
27801;DHT22;15181;49.112;11.930;2022-08-19T14:48:41;22.30;99.90
27801;DHT22;15181;49.112;11.930;2022-08-19T14:51:09;22.50;99.90
27801;DHT22;15181;49.112;11.930;2022-08-19T14:53:36;22.70;99.90
27801;DHT22;15181;49.112;11.930;2022-08-19T14:56:08;22.70;99.90
27801;DHT22;15181;49.112;11.930;2022-08-19T14:58:35;22.60;99.90
27801;DHT22;15181;49.112;11.930;2022-08-19T15:01:05;22.30;99.90
27801;DHT22;15181;49.112;11.930;2022-08-19T15:03:32;22.30;99.90
27801;DHT22;15181;49.112;11.930;2022-08-19T15:06:01;22.10;99.90
27801;DHT22;15181;49.112;11.930;2022-08-19T15:08:30;22.20;99.90
27801;DHT22;15181;49.112;11.930;2022-08-19T15:10:59;22.30;99.90
27801;DHT22;15181;49.112;11.930;2022-08-19T15:13:28;22.30;99.90
27801;DHT22;15181;49.112;11.930;2022-08-19T15:15:56;22.30;99.90
27801;DHT22;15181;49.112;11.930;2022-08-19T15:18:25;22.30;99.90
27801;DHT22;15181;49.112;11.930;2022-08-19T15:20:52;22.30;99.90
27801;DHT22;15181;49.112;11.930;2022-08-19T15:23:22;22.40;99.90
27801;DHT22;15181;49.112;11.930;2022-08-19T15:25:52;22.40;99.90
27801;DHT22;15181;49.112;11.930;2022-08-19T15:28:21;22.40;99.90